Dario Filipe — CUHY7 — position and weather

sailwx.info

Track history (hours):
 
Tides and Currents Weather Stations Pressure Air Temp Water Temp Dewpoint Dewpoint Depression Visibility Wind Speed Wind Dir Waves Ship Positions

Dario Filipe

Last reported at 2016-Jun-07 10:30 UTC. Time now 2016-Jun-28 11:38 UTC.
Position N 38°14' W 030°20'.
Warning: this ship's position is 21 days out of date.

Length 24 m.

Type: Fishing. MMSI: 263414640.

Date/timePositionNaut miles runAvg speedWind from/ knotsBaromVisibWave heightAir tempDewpointWater temp
2016-Jun-07 10:30N 38°14' W 030°20'5 0.4
2016-Jun-06 23:10N 38°18' W 030°16'5 7.3
2016-Jun-06 22:33N 38°16' W 030°11'14 7.1
2016-Jun-06 20:32N 38°15' W 029°53'14 7.2
2016-Jun-06 18:33N 38°16' W 029°35'7 7.1
2016-Jun-06 17:34N 38°15' W 029°26'3 3.2
2016-Jun-06 16:33N 38°12' W 029°26'5 5.3
2016-Jun-06 15:33N 38°07' W 029°30'6 5.9
2016-Jun-06 14:34N 38°03' W 029°34'6 5.6
2016-Jun-06 13:33N 37°57' W 029°37'5 4.6
2016-Jun-06 12:33N 37°53' W 029°37'6 5.8
2016-Jun-06 11:32N 37°49' W 029°42'7 6.5
2016-Jun-06 10:30N 37°48' W 029°51'11 5.6
2016-Jun-06 08:29N 37°52' W 030°04'5 0.8
2016-Jun-06 02:14N 37°52' W 030°11'19 5.2
2016-Jun-05 22:33N 37°50' W 029°46'6 6.0
2016-Jun-05 21:33N 37°52' W 029°39'8 7.9
2016-Jun-05 20:33N 37°60' W 029°38'7 7.2
2016-Jun-05 19:33N 38°07' W 029°35'7 7.4
2016-Jun-05 18:33N 38°12' W 029°30'6 5.8
2016-Jun-05 17:33N 38°15' W 029°23'5 4.5
2016-Jun-05 16:33N 38°12' W 029°18'5 4.6
2016-Jun-05 15:33N 38°08' W 029°16'5 5.1
2016-Jun-05 14:34N 38°04' W 029°11'6 5.5
2016-Jun-05 13:33N 38°02' W 029°04'4 3.8
2016-Jun-05 12:33N 38°00' W 028°60'5 4.7
2016-Jun-05 11:33N 37°58' W 028°55'6 5.7
2016-Jun-05 10:33N 37°55' W 028°49'6 5.6
2016-Jun-05 09:33N 37°52' W 028°43'5 4.8
2016-Jun-05 08:33N 37°50' W 028°37'4 3.6
2016-Jun-05 07:33N 37°51' W 028°33'4 4.3
2016-Jun-05 06:33N 37°52' W 028°27'5 4.7
2016-Jun-05 05:34N 37°53' W 028°21'2 1.5
2016-Jun-05 04:33N 37°53' W 028°20'1 1.1
2016-Jun-05 03:34N 37°53' W 028°21'1 1.1
2016-Jun-05 02:33N 37°53' W 028°22'1 1.1
2016-Jun-05 01:33N 37°53' W 028°24'1 0.9
2016-Jun-05 00:33N 37°52' W 028°25'1 0.8
2016-Jun-04 23:33N 37°52' W 028°26'1 0.9
2016-Jun-04 22:33N 37°52' W 028°27'1 0.9
2016-Jun-04 21:33N 37°52' W 028°28'1 0.8
2016-Jun-04 20:34N 37°52' W 028°29'1 1.0
2016-Jun-04 19:33N 37°52' W 028°30'0 0.3
2016-Jun-04 18:34N 37°52' W 028°30'8 7.5
2016-Jun-04 17:33N 37°53' W 028°40'7 7.2
2016-Jun-04 16:34N 37°56' W 028°48'5 5.2
2016-Jun-04 15:33N 37°59' W 028°53'8 7.7
2016-Jun-04 14:33N 38°02' W 029°02'8 7.6
2016-Jun-04 13:33N 38°06' W 029°11'8 7.6
2016-Jun-04 12:33N 38°11' W 029°17'8 7.6
2016-Jun-04 11:33N 38°16' W 029°25'8 7.6
2016-Jun-04 10:33N 38°21' W 029°32'7 6.9
2016-Jun-04 09:33N 38°28' W 029°35'7 7.0
2016-Jun-04 08:34N 38°34' W 029°37'7 7.1
2016-Jun-04 07:33N 38°41' W 029°41'5 5.5
2016-Jun-04 06:33N 38°45' W 029°46'7 6.9
2016-Jun-04 05:34N 38°51' W 029°48'7 7.2
2016-Jun-04 04:33N 38°58' W 029°51'7 7.0
2016-Jun-04 03:33N 39°05' W 029°54'7 6.9
2016-Jun-04 02:33N 39°11' W 029°57'7 6.7
2016-Jun-04 01:30N 39°18' W 030°00'  
Track history (hours):
 
Tides and Currents Weather Stations Pressure Air Temp Water Temp Dewpoint Dewpoint Depression Visibility Wind Speed Wind Dir Waves Ship Positions

Dario Filipe

Last reported at 2016-Jun-07 10:30 UTC. Time now 2016-Jun-28 11:38 UTC.
Position N 38°14' W 030°20'.
Warning: this ship's position is 21 days out of date.

Length 24 m.

Type: Fishing. MMSI: 263414640.

Date/timePositionNaut miles runAvg speedWind from/ knotsBaromVisibWave heightAir tempDewpointWater temp
2016-Jun-07 10:30N 38°14' W 030°20'5 0.4
2016-Jun-06 23:10N 38°18' W 030°16'5 7.3
2016-Jun-06 22:33N 38°16' W 030°11'14 7.1
2016-Jun-06 20:32N 38°15' W 029°53'14 7.2
2016-Jun-06 18:33N 38°16' W 029°35'7 7.1
2016-Jun-06 17:34N 38°15' W 029°26'3 3.2
2016-Jun-06 16:33N 38°12' W 029°26'5 5.3
2016-Jun-06 15:33N 38°07' W 029°30'6 5.9
2016-Jun-06 14:34N 38°03' W 029°34'6 5.6
2016-Jun-06 13:33N 37°57' W 029°37'5 4.6
2016-Jun-06 12:33N 37°53' W 029°37'6 5.8
2016-Jun-06 11:32N 37°49' W 029°42'7 6.5
2016-Jun-06 10:30N 37°48' W 029°51'11 5.6
2016-Jun-06 08:29N 37°52' W 030°04'5 0.8
2016-Jun-06 02:14N 37°52' W 030°11'19 5.2
2016-Jun-05 22:33N 37°50' W 029°46'6 6.0
2016-Jun-05 21:33N 37°52' W 029°39'8 7.9
2016-Jun-05 20:33N 37°60' W 029°38'7 7.2
2016-Jun-05 19:33N 38°07' W 029°35'7 7.4
2016-Jun-05 18:33N 38°12' W 029°30'6 5.8
2016-Jun-05 17:33N 38°15' W 029°23'5 4.5
2016-Jun-05 16:33N 38°12' W 029°18'5 4.6
2016-Jun-05 15:33N 38°08' W 029°16'5 5.1
2016-Jun-05 14:34N 38°04' W 029°11'6 5.5
2016-Jun-05 13:33N 38°02' W 029°04'4 3.8
2016-Jun-05 12:33N 38°00' W 028°60'5 4.7
2016-Jun-05 11:33N 37°58' W 028°55'6 5.7
2016-Jun-05 10:33N 37°55' W 028°49'6 5.6
2016-Jun-05 09:33N 37°52' W 028°43'5 4.8
2016-Jun-05 08:33N 37°50' W 028°37'4 3.6
2016-Jun-05 07:33N 37°51' W 028°33'4 4.3
2016-Jun-05 06:33N 37°52' W 028°27'5 4.7
2016-Jun-05 05:34N 37°53' W 028°21'2 1.5
2016-Jun-05 04:33N 37°53' W 028°20'1 1.1
2016-Jun-05 03:34N 37°53' W 028°21'1 1.1
2016-Jun-05 02:33N 37°53' W 028°22'1 1.1
2016-Jun-05 01:33N 37°53' W 028°24'1 0.9
2016-Jun-05 00:33N 37°52' W 028°25'1 0.8
2016-Jun-04 23:33N 37°52' W 028°26'1 0.9
2016-Jun-04 22:33N 37°52' W 028°27'1 0.9
2016-Jun-04 21:33N 37°52' W 028°28'1 0.8
2016-Jun-04 20:34N 37°52' W 028°29'1 1.0
2016-Jun-04 19:33N 37°52' W 028°30'0 0.3
2016-Jun-04 18:34N 37°52' W 028°30'8 7.5
2016-Jun-04 17:33N 37°53' W 028°40'7 7.2
2016-Jun-04 16:34N 37°56' W 028°48'5 5.2
2016-Jun-04 15:33N 37°59' W 028°53'8 7.7
2016-Jun-04 14:33N 38°02' W 029°02'8 7.6
2016-Jun-04 13:33N 38°06' W 029°11'8 7.6
2016-Jun-04 12:33N 38°11' W 029°17'8 7.6
2016-Jun-04 11:33N 38°16' W 029°25'8 7.6
2016-Jun-04 10:33N 38°21' W 029°32'7 6.9
2016-Jun-04 09:33N 38°28' W 029°35'7 7.0
2016-Jun-04 08:34N 38°34' W 029°37'7 7.1
2016-Jun-04 07:33N 38°41' W 029°41'5 5.5
2016-Jun-04 06:33N 38°45' W 029°46'7 6.9
2016-Jun-04 05:34N 38°51' W 029°48'7 7.2
2016-Jun-04 04:33N 38°58' W 029°51'7 7.0
2016-Jun-04 03:33N 39°05' W 029°54'7 6.9
2016-Jun-04 02:33N 39°11' W 029°57'7 6.7
2016-Jun-04 01:30N 39°18' W 030°00'  

Dump ship's entire track history